sensor_id;sensor_type;location;lat;lon;timestamp;pressure;altitude;pressure_sealevel;temperature;humidity
32243;BME280;18731;42.830;24.390;2023-05-03T03:01:10;94705.97;;;12.06;41.54
32243;BME280;18731;42.830;24.390;2023-05-03T03:03:35;94722.56;;;11.99;40.91
32243;BME280;18731;42.830;24.390;2023-05-03T03:06:01;94731.81;;;12.02;41.19
32243;BME280;18731;42.830;24.390;2023-05-03T03:08:27;94690.22;;;11.92;40.95
32243;BME280;18731;42.830;24.390;2023-05-03T03:10:52;94726.34;;;11.98;41.00
32243;BME280;18731;42.830;24.390;2023-05-03T03:13:18;94744.72;;;12.00;41.23
32243;BME280;18731;42.830;24.390;2023-05-03T03:15:43;94750.09;;;12.00;41.42
32243;BME280;18731;42.830;24.390;2023-05-03T03:18:10;94726.09;;;11.91;41.21
32243;BME280;18731;42.830;24.390;2023-05-03T03:20:35;94737.28;;;12.05;41.09
32243;BME280;18731;42.830;24.390;2023-05-03T03:23:01;94731.28;;;12.08;41.18
32243;BME280;18731;42.830;24.390;2023-05-03T03:25:26;94752.22;;;12.06;40.78
32243;BME280;18731;42.830;24.390;2023-05-03T03:27:52;94696.88;;;11.86;40.73
32243;BME280;18731;42.830;24.390;2023-05-03T03:30:18;94747.19;;;12.05;41.07
32243;BME280;18731;42.830;24.390;2023-05-03T03:32:43;94760.25;;;12.06;41.81
32243;BME280;18731;42.830;24.390;2023-05-03T03:35:09;94743.63;;;12.01;40.75
32243;BME280;18731;42.830;24.390;2023-05-03T03:37:37;94747.97;;;12.05;40.84
32243;BME280;18731;42.830;24.390;2023-05-03T03:40:04;94731.69;;;11.98;40.85
32243;BME280;18731;42.830;24.390;2023-05-03T03:42:30;94773.38;;;11.99;41.17
32243;BME280;18731;42.830;24.390;2023-05-03T03:44:56;94766.91;;;12.00;40.54
32243;BME280;18731;42.830;24.390;2023-05-03T03:47:21;94752.19;;;11.94;40.72
32243;BME280;18731;42.830;24.390;2023-05-03T03:49:47;94768.81;;;12.00;40.58
32243;BME280;18731;42.830;24.390;2023-05-03T03:52:12;94774.84;;;12.09;40.43
32243;BME280;18731;42.830;24.390;2023-05-03T03:54:38;94751.56;;;12.09;39.98
32243;BME280;18731;42.830;24.390;2023-05-03T03:57:04;94762.94;;;12.18;40.75
32243;BME280;18731;42.830;24.390;2023-05-03T03:59:29;94761.59;;;12.12;40.80
32243;BME280;18731;42.830;24.390;2023-05-03T04:01:55;94770.28;;;12.09;40.72
32243;BME280;18731;42.830;24.390;2023-05-03T04:04:21;94782.69;;;12.14;41.05
32243;BME280;18731;42.830;24.390;2023-05-03T04:06:49;94763.38;;;12.08;40.52
32243;BME280;18731;42.830;24.390;2023-05-03T04:09:15;94771.84;;;12.10;40.35
32243;BME280;18731;42.830;24.390;2023-05-03T04:11:42;94790.81;;;12.17;40.52
32243;BME280;18731;42.830;24.390;2023-05-03T04:14:07;94796.75;;;12.23;40.88
32243;BME280;18731;42.830;24.390;2023-05-03T04:16:33;94826.06;;;12.19;41.19
32243;BME280;18731;42.830;24.390;2023-05-03T04:18:59;94806.44;;;12.15;40.30
32243;BME280;18731;42.830;24.390;2023-05-03T04:21:25;94811.53;;;12.08;40.99
32243;BME280;18731;42.830;24.390;2023-05-03T04:23:53;94800.09;;;12.20;41.75
32243;BME280;18731;42.830;24.390;2023-05-03T04:26:19;94800.41;;;12.18;41.48
32243;BME280;18731;42.830;24.390;2023-05-03T04:28:47;94807.88;;;12.13;41.86
32243;BME280;18731;42.830;24.390;2023-05-03T04:31:12;94810.88;;;12.11;41.20
32243;BME280;18731;42.830;24.390;2023-05-03T04:33:39;94804.28;;;12.09;41.57
32243;BME280;18731;42.830;24.390;2023-05-03T04:36:05;94808.31;;;12.15;41.56
32243;BME280;18731;42.830;24.390;2023-05-03T04:38:31;94813.09;;;12.09;41.72
32243;BME280;18731;42.830;24.390;2023-05-03T04:40:57;94803.75;;;12.15;42.02
32243;BME280;18731;42.830;24.390;2023-05-03T04:43:23;94803.91;;;11.98;42.15
32243;BME280;18731;42.830;24.390;2023-05-03T04:45:51;94828.91;;;12.02;42.87
32243;BME280;18731;42.830;24.390;2023-05-03T04:48:17;94855.41;;;11.95;42.54
32243;BME280;18731;42.830;24.390;2023-05-03T04:50:43;94821.06;;;11.97;43.07
32243;BME280;18731;42.830;24.390;2023-05-03T04:53:09;94840.25;;;11.99;42.72
32243;BME280;18731;42.830;24.390;2023-05-03T04:55:35;94845.72;;;12.03;43.32
32243;BME280;18731;42.830;24.390;2023-05-03T04:58:00;94832.44;;;11.94;43.05
32243;BME280;18731;42.830;24.390;2023-05-03T05:00:26;94838.69;;;11.98;43.25
32243;BME280;18731;42.830;24.390;2023-05-03T05:02:52;94840.13;;;11.96;43.78
32243;BME280;18731;42.830;24.390;2023-05-03T05:05:18;94822.06;;;11.93;43.71
32243;BME280;18731;42.830;24.390;2023-05-03T05:07:44;94851.47;;;11.93;44.15
32243;BME280;18731;42.830;24.390;2023-05-03T05:10:10;94848.53;;;11.85;44.32
32243;BME280;18731;42.830;24.390;2023-05-03T05:12:36;94856.97;;;11.96;44.92
32243;BME280;18731;42.830;24.390;2023-05-03T05:15:02;94854.88;;;11.81;44.67
32243;BME280;18731;42.830;24.390;2023-05-03T05:17:28;94875.75;;;11.87;45.66
32243;BME280;18731;42.830;24.390;2023-05-03T05:19:54;94859.56;;;11.84;46.20
32243;BME280;18731;42.830;24.390;2023-05-03T05:22:20;94852.88;;;11.69;46.58
32243;BME280;18731;42.830;24.390;2023-05-03T05:24:46;94864.78;;;11.80;47.79
32243;BME280;18731;42.830;24.390;2023-05-03T05:27:12;94881.69;;;11.64;49.30
32243;BME280;18731;42.830;24.390;2023-05-03T05:29:38;94875.63;;;11.54;49.63
32243;BME280;18731;42.830;24.390;2023-05-03T05:32:04;94833.56;;;11.43;50.71
32243;BME280;18731;42.830;24.390;2023-05-03T05:34:30;94874.63;;;11.38;50.99
32243;BME280;18731;42.830;24.390;2023-05-03T05:36:56;94887.25;;;11.29;50.81
32243;BME280;18731;42.830;24.390;2023-05-03T05:39:22;94876.28;;;11.22;51.64
32243;BME280;18731;42.830;24.390;2023-05-03T05:41:48;94903.47;;;11.24;52.02
32243;BME280;18731;42.830;24.390;2023-05-03T05:44:14;94890.16;;;11.07;52.50
32243;BME280;18731;42.830;24.390;2023-05-03T05:46:39;94897.44;;;10.98;53.16
32243;BME280;18731;42.830;24.390;2023-05-03T05:49:05;94890.38;;;10.93;54.13
32243;BME280;18731;42.830;24.390;2023-05-03T05:51:31;94878.13;;;10.92;53.59
32243;BME280;18731;42.830;24.390;2023-05-03T05:53:57;94900.56;;;11.00;54.10
32243;BME280;18731;42.830;24.390;2023-05-03T05:56:23;94912.97;;;11.04;53.51
32243;BME280;18731;42.830;24.390;2023-05-03T05:58:49;94899.78;;;10.99;53.39
32243;BME280;18731;42.830;24.390;2023-05-03T06:01:15;94920.38;;;10.99;53.80
32243;BME280;18731;42.830;24.390;2023-05-03T06:03:41;94921.78;;;10.96;53.72
32243;BME280;18731;42.830;24.390;2023-05-03T06:06:06;94915.97;;;11.03;54.36
32243;BME280;18731;42.830;24.390;2023-05-03T06:08:32;94918.31;;;11.04;53.98
32243;BME280;18731;42.830;24.390;2023-05-03T06:10:58;94904.97;;;10.95;54.82
32243;BME280;18731;42.830;24.390;2023-05-03T06:13:24;94905.75;;;10.96;54.62
32243;BME280;18731;42.830;24.390;2023-05-03T06:15:51;94867.81;;;10.73;54.45
32243;BME280;18731;42.830;24.390;2023-05-03T06:18:18;94903.25;;;11.00;54.80
32243;BME280;18731;42.830;24.390;2023-05-03T06:20:47;94899.47;;;11.01;55.13
32243;BME280;18731;42.830;24.390;2023-05-03T06:23:13;94883.63;;;10.95;54.84
32243;BME280;18731;42.830;24.390;2023-05-03T06:25:39;94896.91;;;11.13;56.05
32243;BME280;18731;42.830;24.390;2023-05-03T06:28:05;94887.16;;;11.17;55.46
32243;BME280;18731;42.830;24.390;2023-05-03T06:30:30;94898.75;;;11.21;56.23
32243;BME280;18731;42.830;24.390;2023-05-03T06:32:56;94894.44;;;11.37;56.47
32243;BME280;18731;42.830;24.390;2023-05-03T06:35:22;94882.19;;;11.36;56.77
32243;BME280;18731;42.830;24.390;2023-05-03T06:37:48;94869.78;;;11.32;57.54
32243;BME280;18731;42.830;24.390;2023-05-03T06:40:14;94870.53;;;11.41;58.17
32243;BME280;18731;42.830;24.390;2023-05-03T06:42:40;94867.16;;;11.52;58.51
32243;BME280;18731;42.830;24.390;2023-05-03T06:45:06;94868.53;;;11.58;58.28
32243;BME280;18731;42.830;24.390;2023-05-03T06:47:32;94861.16;;;11.55;58.41
32243;BME280;18731;42.830;24.390;2023-05-03T06:49:58;94858.09;;;11.66;58.01
32243;BME280;18731;42.830;24.390;2023-05-03T06:52:24;94869.19;;;11.76;58.92
32243;BME280;18731;42.830;24.390;2023-05-03T06:54:49;94876.84;;;11.86;58.64
32243;BME280;18731;42.830;24.390;2023-05-03T06:57:15;94855.41;;;11.95;58.06
32243;BME280;18731;42.830;24.390;2023-05-03T06:59:41;94850.16;;;11.99;58.23
32243;BME280;18731;42.830;24.390;2023-05-03T07:02:07;94841.28;;;12.07;58.39
32243;BME280;18731;42.830;24.390;2023-05-03T07:04:32;94862.53;;;12.24;57.80
32243;BME280;18731;42.830;24.390;2023-05-03T07:06:58;94845.94;;;12.31;58.62
32243;BME280;18731;42.830;24.390;2023-05-03T07:09:24;94859.16;;;12.48;59.15
32243;BME280;18731;42.830;24.390;2023-05-03T07:11:49;94846.22;;;12.50;59.01
32243;BME280;18731;42.830;24.390;2023-05-03T07:14:16;94841.16;;;12.69;57.92
32243;BME280;18731;42.830;24.390;2023-05-03T07:16:42;94832.44;;;12.72;57.42
32243;BME280;18731;42.830;24.390;2023-05-03T07:19:07;94843.84;;;12.94;57.54
32243;BME280;18731;42.830;24.390;2023-05-03T07:21:33;94844.44;;;12.99;57.94
32243;BME280;18731;42.830;24.390;2023-05-03T07:23:59;94834.28;;;13.05;56.38
32243;BME280;18731;42.830;24.390;2023-05-03T07:26:26;94829.50;;;13.10;57.83
32243;BME280;18731;42.830;24.390;2023-05-03T07:28:52;94820.00;;;13.13;57.21
32243;BME280;18731;42.830;24.390;2023-05-03T07:31:18;94816.91;;;13.23;57.20
32243;BME280;18731;42.830;24.390;2023-05-03T07:33:45;94831.19;;;13.27;56.77
32243;BME280;18731;42.830;24.390;2023-05-03T07:36:10;94832.53;;;13.33;57.08
32243;BME280;18731;42.830;24.390;2023-05-03T07:38:36;94813.75;;;13.45;56.47
32243;BME280;18731;42.830;24.390;2023-05-03T07:41:02;94822.78;;;13.65;56.21
32243;BME280;18731;42.830;24.390;2023-05-03T07:43:29;94823.28;;;13.83;55.47
32243;BME280;18731;42.830;24.390;2023-05-03T07:45:55;94824.66;;;14.05;56.01
32243;BME280;18731;42.830;24.390;2023-05-03T07:48:21;94822.13;;;14.24;54.76
32243;BME280;18731;42.830;24.390;2023-05-03T07:50:46;94808.66;;;14.36;54.65
32243;BME280;18731;42.830;24.390;2023-05-03T07:53:12;94808.38;;;14.54;54.88
32243;BME280;18731;42.830;24.390;2023-05-03T07:55:38;94811.94;;;14.73;54.89
32243;BME280;18731;42.830;24.390;2023-05-03T07:58:04;94812.28;;;14.88;54.60
32243;BME280;18731;42.830;24.390;2023-05-03T08:00:30;94824.50;;;15.01;54.27
32243;BME280;18731;42.830;24.390;2023-05-03T08:02:56;94804.91;;;15.00;54.14
32243;BME280;18731;42.830;24.390;2023-05-03T08:05:22;94767.91;;;14.94;53.57
32243;BME280;18731;42.830;24.390;2023-05-03T08:07:51;94800.56;;;15.27;53.56
32243;BME280;18731;42.830;24.390;2023-05-03T08:10:17;94801.75;;;15.30;52.64
32243;BME280;18731;42.830;24.390;2023-05-03T08:12:43;94791.88;;;15.34;53.13
32243;BME280;18731;42.830;24.390;2023-05-03T08:15:10;94807.81;;;15.58;53.30
32243;BME280;18731;42.830;24.390;2023-05-03T08:17:40;94806.34;;;15.61;51.65
32243;BME280;18731;42.830;24.390;2023-05-03T08:20:07;94806.94;;;15.70;52.12
32243;BME280;18731;42.830;24.390;2023-05-03T08:22:33;94810.06;;;15.72;52.89
32243;BME280;18731;42.830;24.390;2023-05-03T08:25:01;94802.75;;;15.72;52.36
32243;BME280;18731;42.830;24.390;2023-05-03T08:27:29;94791.91;;;15.69;51.66
32243;BME280;18731;42.830;24.390;2023-05-03T08:29:55;94809.63;;;15.70;51.51
32243;BME280;18731;42.830;24.390;2023-05-03T08:32:21;94794.81;;;15.60;52.06
32243;BME280;18731;42.830;24.390;2023-05-03T08:34:48;94797.03;;;15.58;51.66
32243;BME280;18731;42.830;24.390;2023-05-03T08:37:14;94807.72;;;15.70;51.90
32243;BME280;18731;42.830;24.390;2023-05-03T08:39:39;94796.69;;;15.60;50.96
32243;BME280;18731;42.830;24.390;2023-05-03T08:42:08;94803.97;;;15.75;51.80
32243;BME280;18731;42.830;24.390;2023-05-03T08:44:44;94817.56;;;15.82;51.70
32243;BME280;18731;42.830;24.390;2023-05-03T08:47:13;94806.09;;;15.85;51.32
32243;BME280;18731;42.830;24.390;2023-05-03T08:49:40;94812.53;;;15.81;52.04
32243;BME280;18731;42.830;24.390;2023-05-03T08:52:08;94808.72;;;15.82;51.47
32243;BME280;18731;42.830;24.390;2023-05-03T08:54:35;94811.34;;;15.78;51.27
32243;BME280;18731;42.830;24.390;2023-05-03T08:57:01;94808.91;;;15.73;51.93
32243;BME280;18731;42.830;24.390;2023-05-03T08:59:27;94819.53;;;15.66;51.26
32243;BME280;18731;42.830;24.390;2023-05-03T09:01:54;94808.06;;;15.69;51.50
32243;BME280;18731;42.830;24.390;2023-05-03T09:04:31;94817.41;;;15.75;51.16
32243;BME280;18731;42.830;24.390;2023-05-03T09:07:08;94826.78;;;15.81;50.94
32243;BME280;18731;42.830;24.390;2023-05-03T09:09:34;94819.63;;;15.89;51.60
32243;BME280;18731;42.830;24.390;2023-05-03T09:12:01;94807.59;;;15.83;51.34
32243;BME280;18731;42.830;24.390;2023-05-03T09:14:27;94796.41;;;16.00;50.99
32243;BME280;18731;42.830;24.390;2023-05-03T09:16:53;94797.53;;;15.80;51.01
32243;BME280;18731;42.830;24.390;2023-05-03T09:19:19;94801.28;;;15.75;50.99
32243;BME280;18731;42.830;24.390;2023-05-03T09:21:46;94805.09;;;15.74;51.65
32243;BME280;18731;42.830;24.390;2023-05-03T09:26:39;94816.28;;;15.76;51.41
32243;BME280;18731;42.830;24.390;2023-05-03T09:29:07;94821.88;;;15.67;51.30
32243;BME280;18731;42.830;24.390;2023-05-03T09:31:34;94829.59;;;15.69;50.99
32243;BME280;18731;42.830;24.390;2023-05-03T09:34:01;94819.13;;;15.83;50.74
32243;BME280;18731;42.830;24.390;2023-05-03T09:36:27;94813.97;;;15.94;51.65
32243;BME280;18731;42.830;24.390;2023-05-03T09:38:54;94792.28;;;15.87;50.81
32243;BME280;18731;42.830;24.390;2023-05-03T09:41:27;94804.63;;;15.88;50.53
32243;BME280;18731;42.830;24.390;2023-05-03T09:43:54;94793.34;;;15.82;50.86
32243;BME280;18731;42.830;24.390;2023-05-03T09:46:22;94808.22;;;15.76;51.19
32243;BME280;18731;42.830;24.390;2023-05-03T09:48:51;94776.28;;;15.94;50.45
32243;BME280;18731;42.830;24.390;2023-05-03T09:51:23;94766.75;;;16.61;49.59
32243;BME280;18731;42.830;24.390;2023-05-03T09:53:50;94778.88;;;16.94;48.61
32243;BME280;18731;42.830;24.390;2023-05-03T09:56:15;94754.81;;;16.82;48.08
32243;BME280;18731;42.830;24.390;2023-05-03T09:58:42;94762.50;;;16.60;48.50
32243;BME280;18731;42.830;24.390;2023-05-03T10:01:08;94745.84;;;16.32;49.10
32243;BME280;18731;42.830;24.390;2023-05-03T10:03:42;94758.56;;;16.12;49.63
32243;BME280;18731;42.830;24.390;2023-05-03T10:07:01;94787.81;;;16.14;49.97
32243;BME280;18731;42.830;24.390;2023-05-03T10:12:00;94732.88;;;17.36;47.50
32243;BME280;18731;42.830;24.390;2023-05-03T10:14:29;94757.75;;;17.49;46.68
32243;BME280;18731;42.830;24.390;2023-05-03T10:17:01;94753.13;;;17.23;47.50
32243;BME280;18731;42.830;24.390;2023-05-03T10:22:10;94760.31;;;16.89;47.37
32243;BME280;18731;42.830;24.390;2023-05-03T10:25:05;94747.75;;;16.74;47.79
32243;BME280;18731;42.830;24.390;2023-05-03T10:27:35;94773.03;;;16.65;47.34
32243;BME280;18731;42.830;24.390;2023-05-03T10:30:02;94761.38;;;16.61;47.74
32243;BME280;18731;42.830;24.390;2023-05-03T10:32:37;94759.97;;;16.67;48.37
32243;BME280;18731;42.830;24.390;2023-05-03T10:35:13;94768.16;;;16.75;47.73
32243;BME280;18731;42.830;24.390;2023-05-03T10:37:40;94770.81;;;16.71;47.50
32243;BME280;18731;42.830;24.390;2023-05-03T10:40:14;94768.41;;;16.66;47.43
32243;BME280;18731;42.830;24.390;2023-05-03T10:42:51;94779.59;;;16.68;48.01
32243;BME280;18731;42.830;24.390;2023-05-03T10:45:21;94780.09;;;16.74;48.07
32243;BME280;18731;42.830;24.390;2023-05-03T10:50:41;94771.88;;;16.66;48.77
32243;BME280;18731;42.830;24.390;2023-05-03T10:53:07;94783.09;;;16.68;48.57
32243;BME280;18731;42.830;24.390;2023-05-03T10:55:34;94786.31;;;16.78;48.58
32243;BME280;18731;42.830;24.390;2023-05-03T10:58:00;94795.13;;;16.75;48.63
32243;BME280;18731;42.830;24.390;2023-05-03T11:00:44;94774.81;;;16.81;48.25
32243;BME280;18731;42.830;24.390;2023-05-03T11:05:36;94832.38;;;16.69;48.74
32243;BME280;18731;42.830;24.390;2023-05-03T11:08:13;94811.31;;;16.55;49.61
32243;BME280;18731;42.830;24.390;2023-05-03T11:10:40;94792.06;;;16.34;49.51
32243;BME280;18731;42.830;24.390;2023-05-03T11:13:06;94805.97;;;16.17;49.90
32243;BME280;18731;42.830;24.390;2023-05-03T11:15:32;94827.09;;;16.15;49.59
32243;BME280;18731;42.830;24.390;2023-05-03T11:17:58;94823.59;;;16.14;50.05
32243;BME280;18731;42.830;24.390;2023-05-03T11:20:24;94831.25;;;16.12;50.27
32243;BME280;18731;42.830;24.390;2023-05-03T11:22:51;94826.31;;;16.14;50.27
32243;BME280;18731;42.830;24.390;2023-05-03T11:25:17;94842.66;;;16.05;50.44
32243;BME280;18731;42.830;24.390;2023-05-03T11:27:43;94850.75;;;16.05;50.53
32243;BME280;18731;42.830;24.390;2023-05-03T11:30:12;94831.63;;;16.11;50.36
32243;BME280;18731;42.830;24.390;2023-05-03T11:32:39;94812.19;;;16.01;51.96
32243;BME280;18731;42.830;24.390;2023-05-03T11:35:05;94822.97;;;16.01;51.18
32243;BME280;18731;42.830;24.390;2023-05-03T11:37:33;94817.31;;;16.06;50.93
32243;BME280;18731;42.830;24.390;2023-05-03T11:39:59;94796.47;;;16.23;51.02
32243;BME280;18731;42.830;24.390;2023-05-03T11:42:25;94792.81;;;16.54;50.25
32243;BME280;18731;42.830;24.390;2023-05-03T11:44:53;94784.09;;;17.06;49.05
32243;BME280;18731;42.830;24.390;2023-05-03T11:47:19;94794.59;;;17.38;48.17
32243;BME280;18731;42.830;24.390;2023-05-03T11:49:54;94811.69;;;17.22;49.10
32243;BME280;18731;42.830;24.390;2023-05-03T11:52:25;94766.34;;;17.31;48.54
32243;BME280;18731;42.830;24.390;2023-05-03T11:54:55;94773.25;;;17.29;48.40
32243;BME280;18731;42.830;24.390;2023-05-03T11:57:20;94778.72;;;17.32;47.21
32243;BME280;18731;42.830;24.390;2023-05-03T11:59:46;94788.47;;;17.41;47.78
32243;BME280;18731;42.830;24.390;2023-05-03T12:02:14;94792.16;;;17.29;47.45
32243;BME280;18731;42.830;24.390;2023-05-03T12:04:42;94784.09;;;17.06;47.38
32243;BME280;18731;42.830;24.390;2023-05-03T12:07:11;94774.38;;;17.01;48.05
32243;BME280;18731;42.830;24.390;2023-05-03T12:09:38;94779.94;;;17.12;47.41
32243;BME280;18731;42.830;24.390;2023-05-03T12:12:04;94782.06;;;16.99;47.96
32243;BME280;18731;42.830;24.390;2023-05-03T12:14:58;94776.59;;;16.96;48.10
32243;BME280;18731;42.830;24.390;2023-05-03T12:17:34;94802.44;;;16.97;47.79
32243;BME280;18731;42.830;24.390;2023-05-03T12:20:33;94800.28;;;16.83;47.69
32243;BME280;18731;42.830;24.390;2023-05-03T12:23:03;94811.13;;;16.87;48.37
32243;BME280;18731;42.830;24.390;2023-05-03T12:25:31;94808.25;;;16.76;48.09
32243;BME280;18731;42.830;24.390;2023-05-03T12:27:59;94806.91;;;16.66;48.75
32243;BME280;18731;42.830;24.390;2023-05-03T12:30:27;94798.84;;;16.47;49.10
32243;BME280;18731;42.830;24.390;2023-05-03T12:32:53;94798.84;;;16.47;49.69
32243;BME280;18731;42.830;24.390;2023-05-03T12:35:20;94821.97;;;16.48;49.54
32243;BME280;18731;42.830;24.390;2023-05-03T12:37:47;94795.75;;;16.26;49.81
32243;BME280;18731;42.830;24.390;2023-05-03T12:40:14;94809.44;;;16.17;49.55
32243;BME280;18731;42.830;24.390;2023-05-03T12:42:41;94788.22;;;16.35;49.71
32243;BME280;18731;42.830;24.390;2023-05-03T12:45:07;94790.28;;;16.22;49.16
32243;BME280;18731;42.830;24.390;2023-05-03T12:47:33;94783.97;;;16.34;49.87
32243;BME280;18731;42.830;24.390;2023-05-03T12:49:59;94779.56;;;16.45;49.85
32243;BME280;18731;42.830;24.390;2023-05-03T12:52:27;94772.91;;;16.39;50.13
32243;BME280;18731;42.830;24.390;2023-05-03T12:54:52;94757.91;;;16.61;49.74
32243;BME280;18731;42.830;24.390;2023-05-03T12:57:18;94778.56;;;16.53;49.35
32243;BME280;18731;42.830;24.390;2023-05-03T12:59:43;94766.94;;;16.49;49.68
32243;BME280;18731;42.830;24.390;2023-05-03T13:02:10;94758.69;;;16.61;49.70
32243;BME280;18731;42.830;24.390;2023-05-03T13:04:36;94748.13;;;16.53;50.03
32243;BME280;18731;42.830;24.390;2023-05-03T13:07:02;94731.06;;;16.45;51.13
32243;BME280;18731;42.830;24.390;2023-05-03T13:09:28;94748.19;;;16.56;51.24
32243;BME280;18731;42.830;24.390;2023-05-03T13:11:53;94730.47;;;16.55;52.18
32243;BME280;18731;42.830;24.390;2023-05-03T13:14:20;94740.41;;;16.51;51.88
32243;BME280;18731;42.830;24.390;2023-05-03T13:16:46;94746.56;;;16.29;52.97
32243;BME280;18731;42.830;24.390;2023-05-03T13:19:14;94748.63;;;16.16;53.98
32243;BME280;18731;42.830;24.390;2023-05-03T13:21:41;94749.94;;;15.84;55.50
32243;BME280;18731;42.830;24.390;2023-05-03T13:24:07;94763.16;;;15.73;55.50
32243;BME280;18731;42.830;24.390;2023-05-03T13:26:33;94742.69;;;15.53;56.75
32243;BME280;18731;42.830;24.390;2023-05-03T13:28:59;94744.22;;;15.34;57.08
32243;BME280;18731;42.830;24.390;2023-05-03T13:31:26;94739.06;;;15.26;58.75
32243;BME280;18731;42.830;24.390;2023-05-03T13:33:55;94753.56;;;15.05;60.82
32243;BME280;18731;42.830;24.390;2023-05-03T13:36:25;94756.44;;;14.97;61.87
32243;BME280;18731;42.830;24.390;2023-05-03T13:38:52;94748.06;;;14.83;62.08
32243;BME280;18731;42.830;24.390;2023-05-03T13:41:18;94759.59;;;14.83;62.19
32243;BME280;18731;42.830;24.390;2023-05-03T13:43:44;94755.00;;;14.84;62.35
32243;BME280;18731;42.830;24.390;2023-05-03T13:46:09;94753.69;;;14.77;61.34
32243;BME280;18731;42.830;24.390;2023-05-03T13:48:35;94748.47;;;14.85;61.03
32243;BME280;18731;42.830;24.390;2023-05-03T13:51:08;94745.44;;;14.86;60.81
32243;BME280;18731;42.830;24.390;2023-05-03T13:53:34;94747.00;;;14.87;60.90
32243;BME280;18731;42.830;24.390;2023-05-03T13:56:00;94741.81;;;14.94;60.02
32243;BME280;18731;42.830;24.390;2023-05-03T13:58:25;94745.69;;;14.97;60.03
32243;BME280;18731;42.830;24.390;2023-05-03T14:00:51;94737.97;;;14.95;59.51
32243;BME280;18731;42.830;24.390;2023-05-03T14:03:17;94743.94;;;15.04;61.32
32243;BME280;18731;42.830;24.390;2023-05-03T14:05:43;94743.00;;;14.97;62.09
32243;BME280;18731;42.830;24.390;2023-05-03T14:08:09;94739.19;;;14.98;62.19
32243;BME280;18731;42.830;24.390;2023-05-03T14:10:35;94749.59;;;14.99;62.92
32243;BME280;18731;42.830;24.390;2023-05-03T14:13:01;94734.94;;;14.97;63.16
32243;BME280;18731;42.830;24.390;2023-05-03T14:15:27;94737.19;;;14.95;64.10
32243;BME280;18731;42.830;24.390;2023-05-03T14:17:53;94738.94;;;15.03;63.92
32243;BME280;18731;42.830;24.390;2023-05-03T14:20:18;94726.19;;;15.00;63.53
32243;BME280;18731;42.830;24.390;2023-05-03T14:22:44;94738.38;;;15.13;62.93
32243;BME280;18731;42.830;24.390;2023-05-03T14:25:10;94742.13;;;15.08;61.51
32243;BME280;18731;42.830;24.390;2023-05-03T14:27:37;94750.78;;;15.18;61.88
32243;BME280;18731;42.830;24.390;2023-05-03T14:30:04;94746.88;;;15.15;61.91
32243;BME280;18731;42.830;24.390;2023-05-03T14:32:30;94748.97;;;15.06;63.36
32243;BME280;18731;42.830;24.390;2023-05-03T14:34:56;94741.88;;;14.98;63.11
32243;BME280;18731;42.830;24.390;2023-05-03T14:37:22;94735.31;;;14.79;61.38
32243;BME280;18731;42.830;24.390;2023-05-03T14:39:47;94747.78;;;14.88;62.87
32243;BME280;18731;42.830;24.390;2023-05-03T14:42:13;94745.13;;;14.72;61.42
32243;BME280;18731;42.830;24.390;2023-05-03T14:44:40;94744.16;;;14.80;61.57
32243;BME280;18731;42.830;24.390;2023-05-03T14:47:06;94748.75;;;14.79;62.14
32243;BME280;18731;42.830;24.390;2023-05-03T14:49:32;94748.91;;;14.87;62.69
32243;BME280;18731;42.830;24.390;2023-05-03T14:52:08;94739.41;;;14.73;61.98
32243;BME280;18731;42.830;24.390;2023-05-03T14:54:35;94738.00;;;14.64;61.03
32243;BME280;18731;42.830;24.390;2023-05-03T14:57:02;94736.97;;;14.53;63.15
32243;BME280;18731;42.830;24.390;2023-05-03T14:59:32;94736.53;;;14.51;63.66
32243;BME280;18731;42.830;24.390;2023-05-03T15:01:58;94749.19;;;14.50;64.12
32243;BME280;18731;42.830;24.390;2023-05-03T15:04:24;94737.13;;;14.44;65.29
32243;BME280;18731;42.830;24.390;2023-05-03T15:06:50;94767.97;;;14.50;66.82
32243;BME280;18731;42.830;24.390;2023-05-03T15:09:17;94756.13;;;14.51;66.33
32243;BME280;18731;42.830;24.390;2023-05-03T15:11:43;94739.63;;;14.37;68.30
32243;BME280;18731;42.830;24.390;2023-05-03T15:14:10;94734.88;;;14.46;68.69
32243;BME280;18731;42.830;24.390;2023-05-03T15:16:36;94735.84;;;14.54;72.23
32243;BME280;18731;42.830;24.390;2023-05-03T15:19:02;94722.84;;;14.56;69.50
32243;BME280;18731;42.830;24.390;2023-05-03T15:21:27;94708.78;;;14.31;71.60
32243;BME280;18731;42.830;24.390;2023-05-03T15:23:54;94722.09;;;14.11;72.68
32243;BME280;18731;42.830;24.390;2023-05-03T15:26:20;94710.88;;;13.94;74.23
32243;BME280;18731;42.830;24.390;2023-05-03T15:28:48;94724.06;;;13.99;73.85
32243;BME280;18731;42.830;24.390;2023-05-03T15:31:14;94732.72;;;14.08;75.83
32243;BME280;18731;42.830;24.390;2023-05-03T15:33:41;94732.63;;;14.04;73.81
32243;BME280;18731;42.830;24.390;2023-05-03T15:36:11;94720.53;;;14.10;74.30
32243;BME280;18731;42.830;24.390;2023-05-03T15:38:38;94722.53;;;14.13;73.88
32243;BME280;18731;42.830;24.390;2023-05-03T15:41:05;94728.34;;;14.15;72.73
32243;BME280;18731;42.830;24.390;2023-05-03T15:43:32;94744.25;;;14.08;74.98
32243;BME280;18731;42.830;24.390;2023-05-03T15:45:59;94730.78;;;13.93;73.33
32243;BME280;18731;42.830;24.390;2023-05-03T15:48:25;94720.16;;;13.96;74.19
32243;BME280;18731;42.830;24.390;2023-05-03T15:50:51;94723.47;;;14.05;74.52
32243;BME280;18731;42.830;24.390;2023-05-03T15:53:17;94724.16;;;14.02;76.31
32243;BME280;18731;42.830;24.390;2023-05-03T15:55:43;94728.75;;;14.02;77.16
32243;BME280;18731;42.830;24.390;2023-05-03T15:58:09;94718.06;;;13.90;77.71
32243;BME280;18731;42.830;24.390;2023-05-03T16:00:35;94727.75;;;13.94;77.45
32243;BME280;18731;42.830;24.390;2023-05-03T16:03:02;94731.56;;;13.93;77.77